sensor_id;sensor_type;location;lat;lon;timestamp;P1;durP1;ratioP1;P2;durP2;ratioP2
69894;SDS011;57172;52.034;5.090;2022-09-30T00:01:36;11.43;;;5.38;;
69894;SDS011;57172;52.034;5.090;2022-09-30T00:04:05;9.52;;;5.30;;
69894;SDS011;57172;52.034;5.090;2022-09-30T00:06:38;9.90;;;5.00;;
69894;SDS011;57172;52.034;5.090;2022-09-30T00:09:04;11.50;;;5.38;;
69894;SDS011;57172;52.034;5.090;2022-09-30T00:11:32;9.10;;;5.03;;
69894;SDS011;57172;52.034;5.090;2022-09-30T00:14:02;8.18;;;4.80;;
69894;SDS011;57172;52.034;5.090;2022-09-30T00:16:30;9.32;;;5.60;;
69894;SDS011;57172;52.034;5.090;2022-09-30T00:18:59;10.07;;;5.57;;
69894;SDS011;57172;52.034;5.090;2022-09-30T00:21:29;10.57;;;5.15;;
69894;SDS011;57172;52.034;5.090;2022-09-30T00:23:56;10.80;;;4.83;;
69894;SDS011;57172;52.034;5.090;2022-09-30T00:26:23;10.80;;;5.10;;
69894;SDS011;57172;52.034;5.090;2022-09-30T00:28:54;8.43;;;5.05;;
69894;SDS011;57172;52.034;5.090;2022-09-30T00:31:23;13.05;;;5.50;;
69894;SDS011;57172;52.034;5.090;2022-09-30T00:33:51;12.93;;;5.32;;
69894;SDS011;57172;52.034;5.090;2022-09-30T00:36:34;11.77;;;5.20;;
69894;SDS011;57172;52.034;5.090;2022-09-30T00:39:14;10.07;;;5.15;;
69894;SDS011;57172;52.034;5.090;2022-09-30T00:41:44;9.20;;;5.22;;
69894;SDS011;57172;52.034;5.090;2022-09-30T00:47:05;9.48;;;5.00;;
69894;SDS011;57172;52.034;5.090;2022-09-30T00:49:40;9.57;;;5.10;;
69894;SDS011;57172;52.034;5.090;2022-09-30T00:52:07;10.68;;;5.32;;
69894;SDS011;57172;52.034;5.090;2022-09-30T00:54:34;11.18;;;5.18;;
69894;SDS011;57172;52.034;5.090;2022-09-30T00:57:02;9.20;;;5.13;;
69894;SDS011;57172;52.034;5.090;2022-09-30T00:59:30;10.73;;;5.60;;
69894;SDS011;57172;52.034;5.090;2022-09-30T01:02:02;13.63;;;5.23;;
69894;SDS011;57172;52.034;5.090;2022-09-30T01:04:30;10.25;;;5.55;;
69894;SDS011;57172;52.034;5.090;2022-09-30T01:07:03;10.90;;;5.63;;
69894;SDS011;57172;52.034;5.090;2022-09-30T01:09:32;12.93;;;5.40;;
69894;SDS011;57172;52.034;5.090;2022-09-30T01:12:04;9.35;;;5.50;;
69894;SDS011;57172;52.034;5.090;2022-09-30T01:14:36;10.57;;;5.30;;
69894;SDS011;57172;52.034;5.090;2022-09-30T01:20:22;9.65;;;5.90;;
69894;SDS011;57172;52.034;5.090;2022-09-30T01:27:58;13.10;;;5.63;;
69894;SDS011;57172;52.034;5.090;2022-09-30T01:39:00;9.93;;;6.00;;
69894;SDS011;57172;52.034;5.090;2022-09-30T01:44:44;12.18;;;6.90;;
69894;SDS011;57172;52.034;5.090;2022-09-30T01:47:26;9.63;;;6.10;;
69894;SDS011;57172;52.034;5.090;2022-09-30T01:50:11;10.30;;;5.90;;
69894;SDS011;57172;52.034;5.090;2022-09-30T01:52:55;11.80;;;6.07;;
69894;SDS011;57172;52.034;5.090;2022-09-30T01:55:39;13.00;;;5.90;;
69894;SDS011;57172;52.034;5.090;2022-09-30T02:00:58;11.60;;;5.90;;
69894;SDS011;57172;52.034;5.090;2022-09-30T02:03:32;15.93;;;6.40;;
69894;SDS011;57172;52.034;5.090;2022-09-30T02:06:05;11.05;;;6.40;;
69894;SDS011;57172;52.034;5.090;2022-09-30T02:08:55;11.37;;;5.90;;
69894;SDS011;57172;52.034;5.090;2022-09-30T02:11:37;9.18;;;5.35;;
69894;SDS011;57172;52.034;5.090;2022-09-30T02:16:46;9.68;;;5.75;;
69894;SDS011;57172;52.034;5.090;2022-09-30T02:19:32;10.77;;;5.75;;
69894;SDS011;57172;52.034;5.090;2022-09-30T02:24:43;11.23;;;5.78;;
69894;SDS011;57172;52.034;5.090;2022-09-30T02:27:20;10.15;;;5.70;;
69894;SDS011;57172;52.034;5.090;2022-09-30T02:30:06;9.88;;;5.90;;
69894;SDS011;57172;52.034;5.090;2022-09-30T02:32:38;11.90;;;6.45;;
69894;SDS011;57172;52.034;5.090;2022-09-30T02:35:33;11.73;;;6.90;;
69894;SDS011;57172;52.034;5.090;2022-09-30T02:38:04;12.70;;;6.97;;
69894;SDS011;57172;52.034;5.090;2022-09-30T02:41:00;14.88;;;6.90;;
69894;SDS011;57172;52.034;5.090;2022-09-30T02:43:27;9.80;;;6.50;;
69894;SDS011;57172;52.034;5.090;2022-09-30T02:46:07;11.00;;;6.32;;
69894;SDS011;57172;52.034;5.090;2022-09-30T02:48:46;10.37;;;6.57;;
69894;SDS011;57172;52.034;5.090;2022-09-30T02:51:37;10.32;;;6.50;;
69894;SDS011;57172;52.034;5.090;2022-09-30T02:54:19;13.48;;;7.68;;
69894;SDS011;57172;52.034;5.090;2022-09-30T02:56:57;12.48;;;7.38;;
69894;SDS011;57172;52.034;5.090;2022-09-30T02:59:48;10.50;;;6.68;;
69894;SDS011;57172;52.034;5.090;2022-09-30T03:02:18;11.30;;;6.47;;
69894;SDS011;57172;52.034;5.090;2022-09-30T03:04:47;10.85;;;6.80;;
69894;SDS011;57172;52.034;5.090;2022-09-30T03:07:15;14.90;;;7.38;;
69894;SDS011;57172;52.034;5.090;2022-09-30T03:09:42;12.52;;;7.85;;
69894;SDS011;57172;52.034;5.090;2022-09-30T03:29:53;10.83;;;6.97;;
69894;SDS011;57172;52.034;5.090;2022-09-30T03:35:01;14.35;;;8.00;;
69894;SDS011;57172;52.034;5.090;2022-09-30T03:37:42;11.48;;;7.13;;
69894;SDS011;57172;52.034;5.090;2022-09-30T03:43:15;14.43;;;7.27;;
69894;SDS011;57172;52.034;5.090;2022-09-30T03:45:53;11.10;;;7.15;;
69894;SDS011;57172;52.034;5.090;2022-09-30T03:48:26;13.18;;;7.47;;
69894;SDS011;57172;52.034;5.090;2022-09-30T03:50:55;12.65;;;7.65;;
69894;SDS011;57172;52.034;5.090;2022-09-30T03:53:24;14.73;;;7.80;;
69894;SDS011;57172;52.034;5.090;2022-09-30T03:55:53;15.30;;;8.83;;
69894;SDS011;57172;52.034;5.090;2022-09-30T03:58:20;12.25;;;7.53;;
69894;SDS011;57172;52.034;5.090;2022-09-30T04:00:51;11.68;;;7.35;;
69894;SDS011;57172;52.034;5.090;2022-09-30T04:03:20;13.35;;;7.30;;
69894;SDS011;57172;52.034;5.090;2022-09-30T04:05:48;11.23;;;6.70;;
69894;SDS011;57172;52.034;5.090;2022-09-30T04:08:15;12.87;;;7.73;;
69894;SDS011;57172;52.034;5.090;2022-09-30T04:10:42;13.90;;;7.88;;
69894;SDS011;57172;52.034;5.090;2022-09-30T04:13:09;12.93;;;7.53;;
69894;SDS011;57172;52.034;5.090;2022-09-30T04:15:36;12.95;;;7.47;;
69894;SDS011;57172;52.034;5.090;2022-09-30T04:18:04;12.73;;;7.03;;
69894;SDS011;57172;52.034;5.090;2022-09-30T04:20:31;13.47;;;7.70;;
69894;SDS011;57172;52.034;5.090;2022-09-30T04:22:58;16.83;;;7.72;;
69894;SDS011;57172;52.034;5.090;2022-09-30T04:25:27;12.15;;;6.93;;
69894;SDS011;57172;52.034;5.090;2022-09-30T04:27:54;10.57;;;7.00;;
69894;SDS011;57172;52.034;5.090;2022-09-30T04:30:21;11.77;;;7.43;;
69894;SDS011;57172;52.034;5.090;2022-09-30T04:32:53;13.60;;;7.23;;
69894;SDS011;57172;52.034;5.090;2022-09-30T04:35:20;13.70;;;8.15;;
69894;SDS011;57172;52.034;5.090;2022-09-30T04:37:47;15.57;;;8.07;;
69894;SDS011;57172;52.034;5.090;2022-09-30T04:40:14;15.18;;;7.97;;
69894;SDS011;57172;52.034;5.090;2022-09-30T04:42:42;12.63;;;7.95;;
69894;SDS011;57172;52.034;5.090;2022-09-30T04:45:10;14.90;;;8.30;;
69894;SDS011;57172;52.034;5.090;2022-09-30T04:47:38;12.82;;;7.30;;
69894;SDS011;57172;52.034;5.090;2022-09-30T04:50:08;13.73;;;7.30;;
69894;SDS011;57172;52.034;5.090;2022-09-30T04:52:35;11.85;;;7.57;;
69894;SDS011;57172;52.034;5.090;2022-09-30T04:55:03;13.55;;;7.55;;
69894;SDS011;57172;52.034;5.090;2022-09-30T04:57:30;11.13;;;7.30;;
69894;SDS011;57172;52.034;5.090;2022-09-30T04:59:57;15.48;;;7.72;;
69894;SDS011;57172;52.034;5.090;2022-09-30T05:02:25;14.43;;;7.50;;
69894;SDS011;57172;52.034;5.090;2022-09-30T05:04:52;11.40;;;7.15;;
69894;SDS011;57172;52.034;5.090;2022-09-30T05:07:20;11.38;;;7.18;;
69894;SDS011;57172;52.034;5.090;2022-09-30T05:09:47;14.67;;;7.43;;
69894;SDS011;57172;52.034;5.090;2022-09-30T05:12:14;12.15;;;7.50;;
69894;SDS011;57172;52.034;5.090;2022-09-30T05:14:41;14.13;;;7.95;;
69894;SDS011;57172;52.034;5.090;2022-09-30T05:17:07;12.30;;;7.78;;
69894;SDS011;57172;52.034;5.090;2022-09-30T05:19:35;12.57;;;8.30;;
69894;SDS011;57172;52.034;5.090;2022-09-30T05:22:02;13.20;;;8.27;;
69894;SDS011;57172;52.034;5.090;2022-09-30T05:24:28;15.98;;;9.10;;
69894;SDS011;57172;52.034;5.090;2022-09-30T05:26:56;15.93;;;8.63;;
69894;SDS011;57172;52.034;5.090;2022-09-30T05:29:22;15.27;;;8.35;;
69894;SDS011;57172;52.034;5.090;2022-09-30T05:31:49;16.63;;;8.88;;
69894;SDS011;57172;52.034;5.090;2022-09-30T05:34:16;13.57;;;8.37;;
69894;SDS011;57172;52.034;5.090;2022-09-30T05:36:43;17.45;;;9.05;;
69894;SDS011;57172;52.034;5.090;2022-09-30T05:39:10;17.05;;;9.02;;
69894;SDS011;57172;52.034;5.090;2022-09-30T05:41:37;15.02;;;9.18;;
69894;SDS011;57172;52.034;5.090;2022-09-30T05:44:04;14.68;;;8.40;;
69894;SDS011;57172;52.034;5.090;2022-09-30T05:46:31;18.70;;;9.60;;
69894;SDS011;57172;52.034;5.090;2022-09-30T05:48:58;15.75;;;9.25;;
69894;SDS011;57172;52.034;5.090;2022-09-30T05:51:26;16.42;;;8.90;;
69894;SDS011;57172;52.034;5.090;2022-09-30T05:53:52;13.32;;;8.93;;
69894;SDS011;57172;52.034;5.090;2022-09-30T05:56:19;17.40;;;9.38;;
69894;SDS011;57172;52.034;5.090;2022-09-30T05:58:46;15.63;;;8.40;;
69894;SDS011;57172;52.034;5.090;2022-09-30T06:01:14;14.95;;;8.85;;
69894;SDS011;57172;52.034;5.090;2022-09-30T06:03:41;15.50;;;9.25;;
69894;SDS011;57172;52.034;5.090;2022-09-30T06:06:09;14.57;;;9.23;;
69894;SDS011;57172;52.034;5.090;2022-09-30T06:08:36;14.75;;;9.15;;
69894;SDS011;57172;52.034;5.090;2022-09-30T06:11:06;16.60;;;9.10;;
69894;SDS011;57172;52.034;5.090;2022-09-30T06:13:38;16.45;;;9.15;;
69894;SDS011;57172;52.034;5.090;2022-09-30T06:16:06;16.58;;;9.90;;
69894;SDS011;57172;52.034;5.090;2022-09-30T06:18:34;16.25;;;9.70;;
69894;SDS011;57172;52.034;5.090;2022-09-30T06:21:02;16.52;;;9.07;;
69894;SDS011;57172;52.034;5.090;2022-09-30T06:23:30;17.50;;;9.93;;
69894;SDS011;57172;52.034;5.090;2022-09-30T06:26:00;19.00;;;9.85;;
69894;SDS011;57172;52.034;5.090;2022-09-30T06:28:29;18.75;;;11.27;;
69894;SDS011;57172;52.034;5.090;2022-09-30T06:30:56;21.60;;;11.50;;
69894;SDS011;57172;52.034;5.090;2022-09-30T06:33:23;24.55;;;12.90;;
69894;SDS011;57172;52.034;5.090;2022-09-30T06:35:49;26.83;;;13.67;;
69894;SDS011;57172;52.034;5.090;2022-09-30T06:38:16;26.73;;;12.75;;
69894;SDS011;57172;52.034;5.090;2022-09-30T06:40:43;23.65;;;13.15;;
69894;SDS011;57172;52.034;5.090;2022-09-30T06:43:16;25.40;;;14.52;;
69894;SDS011;57172;52.034;5.090;2022-09-30T06:45:47;23.17;;;12.95;;
69894;SDS011;57172;52.034;5.090;2022-09-30T06:48:17;26.40;;;14.20;;
69894;SDS011;57172;52.034;5.090;2022-09-30T06:50:56;23.08;;;13.23;;
69894;SDS011;57172;52.034;5.090;2022-09-30T06:53:27;23.60;;;13.43;;
69894;SDS011;57172;52.034;5.090;2022-09-30T06:55:55;29.17;;;14.80;;
69894;SDS011;57172;52.034;5.090;2022-09-30T06:58:23;25.98;;;13.32;;
69894;SDS011;57172;52.034;5.090;2022-09-30T07:01:00;25.83;;;14.60;;
69894;SDS011;57172;52.034;5.090;2022-09-30T07:03:33;25.85;;;14.05;;
69894;SDS011;57172;52.034;5.090;2022-09-30T07:06:01;27.77;;;14.32;;
69894;SDS011;57172;52.034;5.090;2022-09-30T07:08:31;23.17;;;13.73;;
69894;SDS011;57172;52.034;5.090;2022-09-30T07:11:00;23.92;;;13.40;;
69894;SDS011;57172;52.034;5.090;2022-09-30T07:13:37;22.33;;;12.47;;
69894;SDS011;57172;52.034;5.090;2022-09-30T07:16:04;21.23;;;12.20;;
69894;SDS011;57172;52.034;5.090;2022-09-30T07:18:31;21.92;;;12.50;;
69894;SDS011;57172;52.034;5.090;2022-09-30T07:20:59;21.45;;;12.48;;
69894;SDS011;57172;52.034;5.090;2022-09-30T07:23:25;18.92;;;11.82;;
69894;SDS011;57172;52.034;5.090;2022-09-30T07:25:54;20.90;;;12.00;;
69894;SDS011;57172;52.034;5.090;2022-09-30T07:28:25;19.65;;;11.85;;
69894;SDS011;57172;52.034;5.090;2022-09-30T07:30:57;15.80;;;11.45;;
69894;SDS011;57172;52.034;5.090;2022-09-30T07:33:45;18.15;;;11.52;;
69894;SDS011;57172;52.034;5.090;2022-09-30T07:36:13;16.50;;;10.48;;
69894;SDS011;57172;52.034;5.090;2022-09-30T07:38:44;14.47;;;10.23;;
69894;SDS011;57172;52.034;5.090;2022-09-30T07:41:16;16.52;;;10.48;;
69894;SDS011;57172;52.034;5.090;2022-09-30T07:43:45;14.50;;;9.57;;
69894;SDS011;57172;52.034;5.090;2022-09-30T07:46:13;13.80;;;9.05;;
69894;SDS011;57172;52.034;5.090;2022-09-30T07:48:43;20.15;;;9.90;;
69894;SDS011;57172;52.034;5.090;2022-09-30T07:51:18;14.07;;;9.50;;
69894;SDS011;57172;52.034;5.090;2022-09-30T07:53:49;14.55;;;9.30;;
69894;SDS011;57172;52.034;5.090;2022-09-30T07:56:21;16.77;;;9.80;;
69894;SDS011;57172;52.034;5.090;2022-09-30T07:58:52;14.00;;;9.48;;
69894;SDS011;57172;52.034;5.090;2022-09-30T08:01:23;15.82;;;9.32;;
69894;SDS011;57172;52.034;5.090;2022-09-30T08:03:54;16.17;;;9.80;;
69894;SDS011;57172;52.034;5.090;2022-09-30T08:06:22;12.00;;;8.57;;
69894;SDS011;57172;52.034;5.090;2022-09-30T08:08:51;12.13;;;8.85;;
69894;SDS011;57172;52.034;5.090;2022-09-30T08:11:20;13.95;;;9.10;;
69894;SDS011;57172;52.034;5.090;2022-09-30T08:13:54;13.07;;;9.07;;
69894;SDS011;57172;52.034;5.090;2022-09-30T08:16:22;12.50;;;8.63;;
69894;SDS011;57172;52.034;5.090;2022-09-30T08:18:54;12.35;;;8.65;;
69894;SDS011;57172;52.034;5.090;2022-09-30T08:21:22;13.50;;;8.65;;
69894;SDS011;57172;52.034;5.090;2022-09-30T08:23:49;11.38;;;8.68;;
69894;SDS011;57172;52.034;5.090;2022-09-30T08:26:16;12.43;;;8.80;;
69894;SDS011;57172;52.034;5.090;2022-09-30T08:28:43;12.97;;;8.13;;
69894;SDS011;57172;52.034;5.090;2022-09-30T08:31:16;10.18;;;8.00;;
69894;SDS011;57172;52.034;5.090;2022-09-30T08:33:48;10.50;;;8.05;;
69894;SDS011;57172;52.034;5.090;2022-09-30T08:36:19;11.45;;;8.02;;
69894;SDS011;57172;52.034;5.090;2022-09-30T08:38:48;10.60;;;7.40;;
69894;SDS011;57172;52.034;5.090;2022-09-30T08:52:34;10.57;;;7.20;;
69894;SDS011;57172;52.034;5.090;2022-09-30T08:55:21;11.63;;;7.33;;
69894;SDS011;57172;52.034;5.090;2022-09-30T08:57:50;9.45;;;7.15;;
69894;SDS011;57172;52.034;5.090;2022-09-30T09:00:19;10.30;;;7.30;;
69894;SDS011;57172;52.034;5.090;2022-09-30T09:02:52;11.57;;;7.20;;
69894;SDS011;57172;52.034;5.090;2022-09-30T09:05:34;8.43;;;6.75;;
69894;SDS011;57172;52.034;5.090;2022-09-30T09:19:41;8.23;;;6.07;;
69894;SDS011;57172;52.034;5.090;2022-09-30T09:22:15;7.80;;;5.70;;
69894;SDS011;57172;52.034;5.090;2022-09-30T09:24:49;7.47;;;5.53;;
69894;SDS011;57172;52.034;5.090;2022-09-30T09:27:18;7.32;;;5.03;;
69894;SDS011;57172;52.034;5.090;2022-09-30T09:29:54;8.20;;;4.63;;
69894;SDS011;57172;52.034;5.090;2022-09-30T09:32:27;8.68;;;4.70;;
69894;SDS011;57172;52.034;5.090;2022-09-30T09:34:59;10.03;;;4.60;;
69894;SDS011;57172;52.034;5.090;2022-09-30T09:37:37;7.50;;;4.63;;
69894;SDS011;57172;52.034;5.090;2022-09-30T09:43:27;6.00;;;4.00;;
69894;SDS011;57172;52.034;5.090;2022-09-30T09:46:20;6.75;;;4.30;;
69894;SDS011;57172;52.034;5.090;2022-09-30T09:51:39;5.90;;;4.00;;
69894;SDS011;57172;52.034;5.090;2022-09-30T09:54:12;7.47;;;4.20;;
69894;SDS011;57172;52.034;5.090;2022-09-30T09:56:44;6.57;;;4.13;;
69894;SDS011;57172;52.034;5.090;2022-09-30T09:59:15;6.03;;;4.45;;
69894;SDS011;57172;52.034;5.090;2022-09-30T10:01:47;7.03;;;4.03;;
69894;SDS011;57172;52.034;5.090;2022-09-30T10:04:23;4.57;;;2.80;;
69894;SDS011;57172;52.034;5.090;2022-09-30T10:06:53;5.55;;;3.45;;
69894;SDS011;57172;52.034;5.090;2022-09-30T10:09:27;4.57;;;2.88;;
69894;SDS011;57172;52.034;5.090;2022-09-30T10:17:19;8.02;;;2.60;;
69894;SDS011;57172;52.034;5.090;2022-09-30T10:19:53;4.32;;;2.70;;
69894;SDS011;57172;52.034;5.090;2022-09-30T10:22:24;4.60;;;2.30;;
69894;SDS011;57172;52.034;5.090;2022-09-30T10:25:16;4.75;;;2.00;;
69894;SDS011;57172;52.034;5.090;2022-09-30T10:30:28;2.72;;;1.90;;
69894;SDS011;57172;52.034;5.090;2022-09-30T10:32:58;4.22;;;1.83;;
69894;SDS011;57172;52.034;5.090;2022-09-30T10:35:29;2.67;;;1.55;;
69894;SDS011;57172;52.034;5.090;2022-09-30T10:37:57;3.75;;;1.80;;
69894;SDS011;57172;52.034;5.090;2022-09-30T10:40:27;2.33;;;1.77;;
69894;SDS011;57172;52.034;5.090;2022-09-30T10:42:55;2.83;;;1.80;;
69894;SDS011;57172;52.034;5.090;2022-09-30T10:45:25;2.97;;;1.80;;
69894;SDS011;57172;52.034;5.090;2022-09-30T10:47:59;3.33;;;2.00;;
69894;SDS011;57172;52.034;5.090;2022-09-30T10:50:32;4.47;;;2.22;;
69894;SDS011;57172;52.034;5.090;2022-09-30T10:53:03;2.70;;;1.87;;
69894;SDS011;57172;52.034;5.090;2022-09-30T10:55:40;4.30;;;2.00;;
69894;SDS011;57172;52.034;5.090;2022-09-30T11:01:08;6.25;;;2.30;;
69894;SDS011;57172;52.034;5.090;2022-09-30T11:06:58;4.70;;;2.37;;
69894;SDS011;57172;52.034;5.090;2022-09-30T11:09:43;4.32;;;2.70;;
69894;SDS011;57172;52.034;5.090;2022-09-30T11:12:17;6.15;;;2.40;;
69894;SDS011;57172;52.034;5.090;2022-09-30T11:15:14;3.33;;;2.53;;
69894;SDS011;57172;52.034;5.090;2022-09-30T11:20:28;4.30;;;2.77;;
69894;SDS011;57172;52.034;5.090;2022-09-30T11:23:04;6.72;;;3.00;;
69894;SDS011;57172;52.034;5.090;2022-09-30T11:31:51;3.85;;;2.70;;
69894;SDS011;57172;52.034;5.090;2022-09-30T11:34:30;5.53;;;2.90;;
69894;SDS011;57172;52.034;5.090;2022-09-30T11:37:29;4.75;;;2.60;;
69894;SDS011;57172;52.034;5.090;2022-09-30T11:40:27;4.25;;;3.00;;
69894;SDS011;57172;52.034;5.090;2022-09-30T12:00:00;6.13;;;3.00;;
69894;SDS011;57172;52.034;5.090;2022-09-30T12:02:41;5.13;;;2.67;;
69894;SDS011;57172;52.034;5.090;2022-09-30T12:05:26;5.30;;;2.88;;
69894;SDS011;57172;52.034;5.090;2022-09-30T12:08:02;5.63;;;3.03;;
69894;SDS011;57172;52.034;5.090;2022-09-30T12:10:59;6.47;;;2.83;;
69894;SDS011;57172;52.034;5.090;2022-09-30T12:13:40;4.15;;;3.10;;
69894;SDS011;57172;52.034;5.090;2022-09-30T12:16:15;8.23;;;2.93;;
69894;SDS011;57172;52.034;5.090;2022-09-30T12:18:47;4.38;;;2.83;;
69894;SDS011;57172;52.034;5.090;2022-09-30T12:21:22;5.45;;;3.20;;
69894;SDS011;57172;52.034;5.090;2022-09-30T12:26:49;8.32;;;3.35;;
69894;SDS011;57172;52.034;5.090;2022-09-30T12:29:21;9.30;;;3.70;;
69894;SDS011;57172;52.034;5.090;2022-09-30T12:42:56;6.30;;;4.23;;
69894;SDS011;57172;52.034;5.090;2022-09-30T12:48:14;9.90;;;4.57;;
69894;SDS011;57172;52.034;5.090;2022-09-30T12:53:29;8.65;;;4.53;;
69894;SDS011;57172;52.034;5.090;2022-09-30T12:56:02;7.13;;;4.00;;
69894;SDS011;57172;52.034;5.090;2022-09-30T12:58:30;5.30;;;3.15;;
69894;SDS011;57172;52.034;5.090;2022-09-30T13:01:10;6.18;;;3.80;;
69894;SDS011;57172;52.034;5.090;2022-09-30T13:06:25;5.78;;;4.00;;
69894;SDS011;57172;52.034;5.090;2022-09-30T13:11:37;4.65;;;2.75;;
69894;SDS011;57172;52.034;5.090;2022-09-30T13:19:34;6.13;;;2.42;;
69894;SDS011;57172;52.034;5.090;2022-09-30T13:30:38;5.15;;;2.40;;
69894;SDS011;57172;52.034;5.090;2022-09-30T13:33:25;4.22;;;2.53;;
69894;SDS011;57172;52.034;5.090;2022-09-30T13:35:56;5.30;;;2.37;;
69894;SDS011;57172;52.034;5.090;2022-09-30T13:38:34;6.70;;;2.22;;
69894;SDS011;57172;52.034;5.090;2022-09-30T13:41:15;3.85;;;2.00;;
69894;SDS011;57172;52.034;5.090;2022-09-30T13:43:56;4.75;;;2.00;;
69894;SDS011;57172;52.034;5.090;2022-09-30T13:46:39;4.13;;;1.98;;
69894;SDS011;57172;52.034;5.090;2022-09-30T13:49:17;3.80;;;2.00;;
69894;SDS011;57172;52.034;5.090;2022-09-30T13:51:59;3.55;;;2.00;;
69894;SDS011;57172;52.034;5.090;2022-09-30T13:54:32;5.45;;;2.20;;
69894;SDS011;57172;52.034;5.090;2022-09-30T13:57:02;3.45;;;2.30;;
69894;SDS011;57172;52.034;5.090;2022-09-30T14:02:24;7.00;;;2.10;;
69894;SDS011;57172;52.034;5.090;2022-09-30T14:10:52;3.72;;;2.45;;
69894;SDS011;57172;52.034;5.090;2022-09-30T14:22:15;4.68;;;2.75;;
69894;SDS011;57172;52.034;5.090;2022-09-30T14:24:48;6.95;;;3.42;;
69894;SDS011;57172;52.034;5.090;2022-09-30T14:30:13;5.97;;;3.60;;
69894;SDS011;57172;52.034;5.090;2022-09-30T14:32:48;4.97;;;3.35;;
69894;SDS011;57172;52.034;5.090;2022-09-30T14:35:27;6.97;;;3.60;;
69894;SDS011;57172;52.034;5.090;2022-09-30T14:38:00;7.53;;;3.22;;
69894;SDS011;57172;52.034;5.090;2022-09-30T14:40:31;7.00;;;4.00;;
69894;SDS011;57172;52.034;5.090;2022-09-30T14:43:00;6.47;;;3.80;;
69894;SDS011;57172;52.034;5.090;2022-09-30T14:45:31;8.48;;;4.10;;
69894;SDS011;57172;52.034;5.090;2022-09-30T14:48:07;6.10;;;3.88;;
69894;SDS011;57172;52.034;5.090;2022-09-30T14:50:40;7.90;;;4.20;;
69894;SDS011;57172;52.034;5.090;2022-09-30T14:53:31;7.00;;;4.40;;
69894;SDS011;57172;52.034;5.090;2022-09-30T14:56:03;6.00;;;3.57;;
69894;SDS011;57172;52.034;5.090;2022-09-30T14:58:44;6.88;;;3.70;;
69894;SDS011;57172;52.034;5.090;2022-09-30T15:01:13;6.68;;;3.85;;
69894;SDS011;57172;52.034;5.090;2022-09-30T15:03:46;9.02;;;3.67;;
69894;SDS011;57172;52.034;5.090;2022-09-30T15:06:21;5.65;;;3.70;;
69894;SDS011;57172;52.034;5.090;2022-09-30T15:08:52;6.03;;;4.10;;
69894;SDS011;57172;52.034;5.090;2022-09-30T15:11:45;8.65;;;4.07;;
69894;SDS011;57172;52.034;5.090;2022-09-30T15:14:17;7.13;;;4.05;;
69894;SDS011;57172;52.034;5.090;2022-09-30T15:16:47;6.85;;;3.97;;
69894;SDS011;57172;52.034;5.090;2022-09-30T15:19:26;8.07;;;4.28;;
69894;SDS011;57172;52.034;5.090;2022-09-30T15:21:56;7.07;;;4.20;;
69894;SDS011;57172;52.034;5.090;2022-09-30T15:24:28;7.43;;;4.50;;
69894;SDS011;57172;52.034;5.090;2022-09-30T15:26:58;7.82;;;4.70;;
69894;SDS011;57172;52.034;5.090;2022-09-30T15:29:27;6.05;;;4.07;;
69894;SDS011;57172;52.034;5.090;2022-09-30T15:31:57;7.72;;;4.78;;
69894;SDS011;57172;52.034;5.090;2022-09-30T15:34:27;6.73;;;4.40;;
69894;SDS011;57172;52.034;5.090;2022-09-30T15:37:04;7.18;;;4.10;;
69894;SDS011;57172;52.034;5.090;2022-09-30T15:39:38;7.90;;;4.30;;
69894;SDS011;57172;52.034;5.090;2022-09-30T15:42:37;6.93;;;4.10;;
69894;SDS011;57172;52.034;5.090;2022-09-30T15:47:56;5.43;;;3.87;;
69894;SDS011;57172;52.034;5.090;2022-09-30T15:50:35;5.97;;;3.90;;
69894;SDS011;57172;52.034;5.090;2022-09-30T15:53:04;8.30;;;4.22;;
69894;SDS011;57172;52.034;5.090;2022-09-30T15:55:40;6.25;;;4.50;;
69894;SDS011;57172;52.034;5.090;2022-09-30T16:06:14;7.55;;;4.00;;
69894;SDS011;57172;52.034;5.090;2022-09-30T16:08:49;7.68;;;3.85;;
69894;SDS011;57172;52.034;5.090;2022-09-30T16:11:30;6.20;;;4.03;;
69894;SDS011;57172;52.034;5.090;2022-09-30T16:14:00;5.43;;;3.87;;
69894;SDS011;57172;52.034;5.090;2022-09-30T16:16:31;6.82;;;3.90;;
69894;SDS011;57172;52.034;5.090;2022-09-30T16:19:01;7.97;;;4.05;;
69894;SDS011;57172;52.034;5.090;2022-09-30T16:26:56;8.13;;;3.97;;
69894;SDS011;57172;52.034;5.090;2022-09-30T16:29:25;7.03;;;3.90;;
69894;SDS011;57172;52.034;5.090;2022-09-30T16:31:53;6.63;;;3.70;;
69894;SDS011;57172;52.034;5.090;2022-09-30T16:34:23;5.75;;;3.65;;
69894;SDS011;57172;52.034;5.090;2022-09-30T16:37:02;6.22;;;3.80;;
69894;SDS011;57172;52.034;5.090;2022-09-30T16:39:35;6.97;;;3.50;;
69894;SDS011;57172;52.034;5.090;2022-09-30T16:42:02;7.32;;;3.70;;
69894;SDS011;57172;52.034;5.090;2022-09-30T16:44:29;6.13;;;4.00;;
69894;SDS011;57172;52.034;5.090;2022-09-30T16:47:01;6.60;;;4.05;;
69894;SDS011;57172;52.034;5.090;2022-09-30T16:49:28;8.50;;;4.00;;
69894;SDS011;57172;52.034;5.090;2022-09-30T16:51:54;5.40;;;3.83;;
69894;SDS011;57172;52.034;5.090;2022-09-30T16:54:21;6.18;;;3.85;;
69894;SDS011;57172;52.034;5.090;2022-09-30T16:56:48;6.07;;;4.00;;
69894;SDS011;57172;52.034;5.090;2022-09-30T16:59:15;7.68;;;4.10;;
69894;SDS011;57172;52.034;5.090;2022-09-30T17:01:44;6.03;;;4.05;;
69894;SDS011;57172;52.034;5.090;2022-09-30T17:04:11;9.97;;;4.87;;
69894;SDS011;57172;52.034;5.090;2022-09-30T17:06:42;10.77;;;5.18;;
69894;SDS011;57172;52.034;5.090;2022-09-30T17:09:09;8.32;;;5.25;;
69894;SDS011;57172;52.034;5.090;2022-09-30T17:11:36;9.73;;;5.10;;
69894;SDS011;57172;52.034;5.090;2022-09-30T17:14:03;8.68;;;5.30;;
69894;SDS011;57172;52.034;5.090;2022-09-30T17:16:32;9.83;;;5.13;;
69894;SDS011;57172;52.034;5.090;2022-09-30T17:19:00;8.88;;;5.40;;
69894;SDS011;57172;52.034;5.090;2022-09-30T17:21:26;7.30;;;4.82;;
69894;SDS011;57172;52.034;5.090;2022-09-30T17:23:54;8.82;;;5.15;;
69894;SDS011;57172;52.034;5.090;2022-09-30T17:26:21;7.55;;;5.10;;
69894;SDS011;57172;52.034;5.090;2022-09-30T17:28:48;8.30;;;5.00;;
69894;SDS011;57172;52.034;5.090;2022-09-30T17:31:15;8.85;;;5.10;;
69894;SDS011;57172;52.034;5.090;2022-09-30T17:33:42;6.75;;;3.97;;
69894;SDS011;57172;52.034;5.090;2022-09-30T17:36:10;6.40;;;4.47;;
69894;SDS011;57172;52.034;5.090;2022-09-30T17:38:38;7.88;;;4.63;;
69894;SDS011;57172;52.034;5.090;2022-09-30T17:41:05;8.83;;;4.67;;
69894;SDS011;57172;52.034;5.090;2022-09-30T17:43:51;6.90;;;4.05;;
69894;SDS011;57172;52.034;5.090;2022-09-30T17:46:18;7.32;;;4.18;;
69894;SDS011;57172;52.034;5.090;2022-09-30T17:48:48;9.75;;;6.03;;
69894;SDS011;57172;52.034;5.090;2022-09-30T17:51:19;9.07;;;5.38;;
69894;SDS011;57172;52.034;5.090;2022-09-30T17:53:46;6.70;;;4.67;;
69894;SDS011;57172;52.034;5.090;2022-09-30T17:56:15;8.85;;;5.03;;
69894;SDS011;57172;52.034;5.090;2022-09-30T17:58:44;13.02;;;4.68;;
69894;SDS011;57172;52.034;5.090;2022-09-30T18:01:14;7.10;;;3.95;;
69894;SDS011;57172;52.034;5.090;2022-09-30T18:03:42;8.20;;;4.95;;
69894;SDS011;57172;52.034;5.090;2022-09-30T18:06:11;9.03;;;5.10;;
69894;SDS011;57172;52.034;5.090;2022-09-30T18:08:41;8.20;;;4.97;;
69894;SDS011;57172;52.034;5.090;2022-09-30T18:11:08;7.88;;;4.90;;
69894;SDS011;57172;52.034;5.090;2022-09-30T18:13:36;5.40;;;3.40;;
69894;SDS011;57172;52.034;5.090;2022-09-30T18:16:04;8.57;;;5.13;;
69894;SDS011;57172;52.034;5.090;2022-09-30T18:18:32;9.50;;;5.20;;
69894;SDS011;57172;52.034;5.090;2022-09-30T18:21:00;7.28;;;4.10;;
69894;SDS011;57172;52.034;5.090;2022-09-30T18:23:27;8.55;;;4.40;;
69894;SDS011;57172;52.034;5.090;2022-09-30T18:25:54;8.02;;;4.70;;
69894;SDS011;57172;52.034;5.090;2022-09-30T18:28:21;9.10;;;5.18;;